createdAt,value
2023-04-25T00:01:15.565Z,97777.41
2023-04-25T00:03:49.847Z,97778.84
2023-04-25T00:06:23.078Z,97767.28
2023-04-25T00:08:54.722Z,97752.63
2023-04-25T00:11:25.432Z,97760.16
2023-04-25T00:13:56.864Z,97760.63
2023-04-25T00:16:32.323Z,97763.81
2023-04-25T00:19:05.195Z,97759.28
2023-04-25T00:21:36.676Z,97739.25
2023-04-25T00:24:08.351Z,97750.44
2023-04-25T00:26:45.397Z,97746.22
2023-04-25T00:29:16.219Z,97750.91
2023-04-25T00:31:46.873Z,97752.94
2023-04-25T00:34:18.307Z,97750.13
2023-04-25T00:36:49.700Z,97760.22
2023-04-25T00:39:24.042Z,97751.41
2023-04-25T00:41:58.780Z,97747.91
2023-04-25T00:44:43.177Z,97745.38
2023-04-25T00:47:13.533Z,97744.03
2023-04-25T00:49:47.780Z,97746.84
2023-04-25T00:52:29.553Z,97737.06
2023-04-25T00:55:17.833Z,97741.78
2023-04-25T00:58:04.464Z,97724.72
2023-04-25T01:00:41.286Z,97750.41
2023-04-25T01:03:18.778Z,97749.72
2023-04-25T01:06:00.234Z,97751.91
2023-04-25T01:08:34.043Z,97737.63
2023-04-25T01:11:08.037Z,97743.41
2023-04-25T01:13:38.542Z,97761.28
2023-04-25T01:16:12.456Z,97749.94
2023-04-25T01:18:52.953Z,97743.63
2023-04-25T01:21:21.898Z,97759.03
2023-04-25T01:23:52.346Z,97751.03
2023-04-25T01:26:23.831Z,97752.56
2023-04-25T01:28:54.843Z,97755.72
2023-04-25T01:31:23.552Z,97756.03
2023-04-25T01:34:04.123Z,97757.22
2023-04-25T01:36:36.040Z,97766.19
2023-04-25T01:39:19.344Z,97761.75
2023-04-25T01:41:51.887Z,97761.13
2023-04-25T01:44:20.765Z,97767.91
2023-04-25T01:46:53.884Z,97763.91
2023-04-25T01:49:38.979Z,97769.56
2023-04-25T01:52:10.774Z,97761.94
2023-04-25T01:54:48.033Z,97771.41
2023-04-25T01:57:20.249Z,97772.63
2023-04-25T01:59:57.192Z,97776.19
2023-04-25T02:02:53.759Z,97774.53
2023-04-25T02:05:32.425Z,97774.25
2023-04-25T02:08:06.039Z,97780.16
2023-04-25T02:10:43.810Z,97784.88
2023-04-25T02:13:33.981Z,97768.13
2023-04-25T02:16:20.185Z,97780.72
2023-04-25T02:18:56.980Z,97779.31
2023-04-25T02:21:27.350Z,97782.56
2023-04-25T02:26:44.604Z,97770.66
2023-04-25T02:29:32.981Z,97787.72
2023-04-25T02:32:06.722Z,97794.22
2023-04-25T02:37:20.120Z,97794.66
2023-04-25T02:39:50.654Z,97793.72
2023-04-25T02:42:21.707Z,97783.06
2023-04-25T02:44:55.179Z,97773.94
2023-04-25T02:47:32.664Z,97785.06
2023-04-25T02:50:15.396Z,97774.72
2023-04-25T02:52:50.413Z,97777.66
2023-04-25T02:55:36.871Z,97763.56
2023-04-25T02:58:11.863Z,97775.59
2023-04-25T03:00:55.798Z,97776.22
2023-04-25T03:03:27.832Z,97760.66
2023-04-25T03:06:00.053Z,97767.13
2023-04-25T03:08:48.156Z,97745.59
2023-04-25T03:11:23.977Z,97757.88
2023-04-25T03:13:53.435Z,97765.34
2023-04-25T03:16:31.181Z,97771.34
2023-04-25T03:19:08.989Z,97772.41
2023-04-25T03:21:38.234Z,97764.91
2023-04-25T03:26:54.783Z,97781.31
2023-04-25T03:29:29.868Z,97775.41
2023-04-25T03:32:06.642Z,97780.34
2023-04-25T03:34:36.746Z,97771.53
2023-04-25T03:37:07.107Z,97768.22
2023-04-25T03:39:47.078Z,97775.50
2023-04-25T03:42:17.906Z,97775.31
2023-04-25T03:44:58.585Z,97775.75
2023-04-25T03:47:29.889Z,97759.50
2023-04-25T03:50:06.633Z,97781.91
2023-04-25T03:52:35.378Z,97772.59
2023-04-25T03:55:21.848Z,97782.19
2023-04-25T03:57:52.232Z,97784.66
2023-04-25T04:00:27.550Z,97786.44
2023-04-25T04:02:59.006Z,97787.59
2023-04-25T04:05:31.285Z,97773.91
2023-04-25T04:08:02.299Z,97799.47
2023-04-25T04:10:35.832Z,97795.66
2023-04-25T04:13:12.059Z,97797.72
2023-04-25T04:15:55.659Z,97805.19
2023-04-25T04:18:29.207Z,97803.75
2023-04-25T04:21:05.463Z,97789.56
2023-04-25T04:23:44.561Z,97779.81
2023-04-25T04:26:33.997Z,97786.91
2023-04-25T04:29:19.893Z,97787.72
2023-04-25T04:32:02.087Z,97789.19
2023-04-25T04:34:38.820Z,97801.84
2023-04-25T04:37:08.191Z,97805.06
2023-04-25T04:39:41.726Z,97805.13
2023-04-25T04:42:26.924Z,97786.56
2023-04-25T04:45:40.453Z,97807.00
2023-04-25T04:48:19.681Z,97788.09
2023-04-25T04:51:18.549Z,97799.53
2023-04-25T04:53:52.784Z,97794.63
2023-04-25T04:56:44.458Z,97804.56
2023-04-25T04:59:33.631Z,97785.41
2023-04-25T05:02:34.829Z,97796.47
2023-04-25T05:05:23.339Z,97800.69
2023-04-25T05:08:31.051Z,97801.66
2023-04-25T05:11:24.996Z,97780.03
2023-04-25T05:14:22.596Z,97800.38
2023-04-25T05:17:12.106Z,97799.28
2023-04-25T05:20:22.625Z,97790.97
2023-04-25T05:23:11.144Z,97792.47
2023-04-25T05:26:17.874Z,97792.81
2023-04-25T05:28:56.671Z,97771.41
2023-04-25T05:31:50.177Z,97785.59
2023-04-25T05:34:26.374Z,97774.94
2023-04-25T05:37:15.468Z,97774.66
2023-04-25T05:39:57.666Z,97772.72
2023-04-25T05:42:40.560Z,97764.09
2023-04-25T05:45:49.909Z,97758.72
2023-04-25T05:48:48.548Z,97764.13
2023-04-25T05:51:40.883Z,97762.47
2023-04-25T05:54:30.681Z,97756.16
2023-04-25T05:57:06.135Z,97750.47
2023-04-25T05:59:37.189Z,97758.91
2023-04-25T06:02:09.577Z,97753.88
2023-04-25T06:04:43.221Z,97702.16
2023-04-25T06:07:12.579Z,97734.69
2023-04-25T06:09:52.575Z,97743.16
2023-04-25T06:12:26.548Z,97750.47
2023-04-25T06:14:57.626Z,97746.22
2023-04-25T06:17:28.931Z,97733.41
2023-04-25T06:20:01.607Z,97747.22
2023-04-25T06:22:33.936Z,97757.78
2023-04-25T06:25:06.084Z,97754.69
2023-04-25T06:30:22.459Z,97756.81
2023-04-25T06:33:03.553Z,97760.13
2023-04-25T06:35:42.197Z,97759.63
2023-04-25T06:38:15.956Z,97762.66
2023-04-25T06:41:08.926Z,97734.69
2023-04-25T06:43:41.676Z,97746.75
2023-04-25T06:46:34.754Z,97757.03
2023-04-25T06:49:06.727Z,97756.69
2023-04-25T06:51:41.218Z,97755.84
2023-04-25T06:54:16.382Z,97726.56
2023-04-25T06:57:01.637Z,97744.72
2023-04-25T07:02:18.932Z,97756.69
2023-04-25T07:04:51.309Z,97757.47
2023-04-25T07:07:27.148Z,97762.31
2023-04-25T07:10:10.608Z,97756.84
2023-04-25T07:12:40.946Z,97754.59
2023-04-25T07:15:12.934Z,97739.47
2023-04-25T07:17:47.315Z,97760.50
2023-04-25T07:23:03.288Z,97744.41
2023-04-25T07:25:36.127Z,97735.38
2023-04-25T07:28:13.796Z,97722.41
2023-04-25T07:30:56.228Z,97718.59
2023-04-25T07:33:37.034Z,97728.41
2023-04-25T07:36:07.750Z,97729.69
2023-04-25T07:38:36.427Z,97725.63
2023-04-25T07:41:06.944Z,97719.41
2023-04-25T07:43:38.435Z,97728.34
2023-04-25T07:46:20.498Z,97730.31
2023-04-25T07:49:00.079Z,97730.78
2023-04-25T07:51:46.432Z,97718.47
2023-04-25T07:57:15.488Z,97723.75
2023-04-25T07:59:57.200Z,97727.69
2023-04-25T08:02:31.972Z,97722.78
2023-04-25T08:05:12.079Z,97702.84
2023-04-25T08:07:46.111Z,97710.22
2023-04-25T08:10:20.444Z,97725.66
2023-04-25T08:13:04.046Z,97712.03
2023-04-25T08:15:50.234Z,97719.44
2023-04-25T08:18:21.353Z,97714.00
2023-04-25T08:20:53.961Z,97703.84
2023-04-25T08:23:24.692Z,97712.22
2023-04-25T08:26:31.646Z,97716.22
2023-04-25T08:29:08.148Z,97714.22
2023-04-25T08:31:46.682Z,97708.00
2023-04-25T08:34:16.751Z,97709.16
2023-04-25T08:36:51.875Z,97710.06
2023-04-25T08:39:45.628Z,97714.91
2023-04-25T08:42:45.720Z,97706.94
2023-04-25T08:45:18.814Z,97703.19
2023-04-25T08:47:53.248Z,97709.03
2023-04-25T08:50:27.475Z,97694.06
2023-04-25T08:53:16.832Z,97707.56
2023-04-25T08:55:47.111Z,97708.09
2023-04-25T08:58:22.366Z,97692.66
2023-04-25T09:00:54.789Z,97713.53
2023-04-25T09:03:29.297Z,97711.41
2023-04-25T09:06:07.806Z,97708.63
2023-04-25T09:08:57.228Z,97714.91
2023-04-25T09:11:26.547Z,97718.28
2023-04-25T09:14:28.801Z,97675.31
2023-04-25T09:17:16.779Z,97715.63
2023-04-25T09:20:13.576Z,97716.13
2023-04-25T09:22:46.295Z,97697.41
2023-04-25T09:25:26.375Z,97701.63
2023-04-25T09:27:58.562Z,97708.97
2023-04-25T09:30:46.717Z,97699.72
2023-04-25T09:33:54.645Z,97709.41
2023-04-25T09:36:29.253Z,97705.69
2023-04-25T09:39:34.175Z,97712.81
2023-04-25T09:42:19.859Z,97704.91
2023-04-25T09:44:51.911Z,97717.47
2023-04-25T09:47:23.069Z,97710.84
2023-04-25T09:49:54.834Z,97707.66
2023-04-25T09:52:26.223Z,97709.94
2023-04-25T09:55:25.444Z,97695.69
2023-04-25T09:58:07.293Z,97694.91
2023-04-25T10:00:41.478Z,97687.75
2023-04-25T10:03:28.271Z,97687.72
2023-04-25T10:06:24.823Z,97676.22
2023-04-25T10:09:08.364Z,97676.38
2023-04-25T10:11:50.270Z,97666.63
2023-04-25T10:14:26.967Z,97666.44
2023-04-25T10:16:59.014Z,97673.25
2023-04-25T10:19:44.239Z,97659.88
2023-04-25T10:22:36.488Z,97645.00
2023-04-25T10:25:15.577Z,97650.84
2023-04-25T10:27:45.808Z,97635.38
2023-04-25T10:30:28.795Z,97638.91
2023-04-25T10:33:04.817Z,97636.72
2023-04-25T10:35:39.626Z,97645.16
2023-04-25T10:38:21.569Z,97637.97
2023-04-25T10:41:11.950Z,97623.53
2023-04-25T10:43:54.768Z,97632.16
2023-04-25T10:46:39.739Z,97618.75
2023-04-25T10:49:16.415Z,97621.38
2023-04-25T10:51:55.517Z,97626.25
2023-04-25T10:54:27.258Z,97621.75
2023-04-25T10:57:02.191Z,97615.59
2023-04-25T10:59:32.967Z,97617.00
2023-04-25T11:02:03.714Z,97627.31
2023-04-25T11:04:44.746Z,97621.78
2023-04-25T11:07:36.684Z,97601.44
2023-04-25T11:10:22.620Z,97604.50
2023-04-25T11:12:57.122Z,97602.00
2023-04-25T11:15:25.722Z,97597.31
2023-04-25T11:18:26.837Z,97598.03
2023-04-25T11:20:58.418Z,97600.06
2023-04-25T11:23:39.849Z,97601.31
2023-04-25T11:26:11.940Z,97601.63
2023-04-25T11:28:42.674Z,97591.44
2023-04-25T11:31:12.182Z,97592.81
2023-04-25T11:33:51.052Z,97587.63
2023-04-25T11:36:22.741Z,97597.28
2023-04-25T11:39:03.458Z,97586.22
2023-04-25T11:41:42.891Z,97587.44
2023-04-25T11:44:23.776Z,97574.84
2023-04-25T11:46:54.728Z,97579.00
2023-04-25T11:49:28.837Z,97561.59
2023-04-25T11:51:59.743Z,97571.72
2023-04-25T11:54:33.450Z,97578.09
2023-04-25T11:57:06.432Z,97559.31
2023-04-25T11:59:41.021Z,97575.41
2023-04-25T12:02:15.827Z,97577.78
2023-04-25T12:04:44.860Z,97524.19
2023-04-25T12:07:33.698Z,97573.25
2023-04-25T12:10:23.722Z,97556.19
2023-04-25T12:12:58.645Z,97565.97
2023-04-25T12:15:30.221Z,97555.94
2023-04-25T12:18:00.857Z,97553.16
2023-04-25T12:20:30.086Z,97549.84
2023-04-25T12:23:01.382Z,97551.97
2023-04-25T12:25:47.025Z,97550.38
2023-04-25T12:28:24.645Z,97546.59
2023-04-25T12:31:18.516Z,97550.72
2023-04-25T12:33:49.481Z,97536.16
2023-04-25T12:36:28.532Z,97539.69
2023-04-25T12:39:07.586Z,97530.88
2023-04-25T12:41:47.859Z,97522.81
2023-04-25T12:44:21.596Z,97519.66
2023-04-25T12:46:53.453Z,97519.66
2023-04-25T12:49:27.516Z,97532.66
2023-04-25T12:51:57.786Z,97534.63
2023-04-25T12:54:27.918Z,97528.47
2023-04-25T12:59:42.151Z,97520.81
2023-04-25T13:02:13.005Z,97525.59
2023-04-25T13:04:46.896Z,97525.59
2023-04-25T13:07:17.934Z,97514.97
2023-04-25T13:09:51.952Z,97527.63
2023-04-25T13:12:37.237Z,97522.88
2023-04-25T13:15:11.229Z,97520.47
2023-04-25T13:17:48.134Z,97532.28
2023-04-25T13:20:23.187Z,97520.34
2023-04-25T13:23:09.194Z,97523.59
2023-04-25T13:25:39.719Z,97508.16
2023-04-25T13:28:09.212Z,97518.13
2023-04-25T13:30:40.182Z,97519.38
2023-04-25T13:33:17.426Z,97516.97
2023-04-25T13:35:48.585Z,97508.41
2023-04-25T13:38:19.725Z,97511.91
2023-04-25T13:40:50.590Z,97498.00
2023-04-25T13:43:32.522Z,97511.63
2023-04-25T13:46:04.665Z,97509.84
2023-04-25T13:48:52.754Z,97500.75
2023-04-25T13:51:25.012Z,97503.91
2023-04-25T13:53:53.620Z,97492.50
2023-04-25T13:56:22.582Z,97512.13
2023-04-25T13:58:56.791Z,97491.72
2023-04-25T14:01:25.072Z,97509.22
2023-04-25T14:03:58.046Z,97505.97
2023-04-25T14:06:32.169Z,97493.59
2023-04-25T14:09:14.573Z,97508.75
2023-04-25T14:11:45.291Z,97449.28
2023-04-25T14:14:17.183Z,97506.63
2023-04-25T14:16:48.212Z,97491.44
2023-04-25T14:19:28.192Z,97502.19
2023-04-25T14:22:13.678Z,97502.84
2023-04-25T14:24:45.812Z,97502.03
2023-04-25T14:27:17.253Z,97491.97
2023-04-25T14:29:47.896Z,97509.28
2023-04-25T14:32:21.649Z,97488.38
2023-04-25T14:34:52.056Z,97502.22
2023-04-25T14:37:23.975Z,97483.63
2023-04-25T14:39:53.498Z,97484.53
2023-04-25T14:42:25.353Z,97474.41
2023-04-25T14:45:02.590Z,97484.44
2023-04-25T14:47:33.389Z,97495.81
2023-04-25T14:50:21.635Z,97496.16
2023-04-25T14:52:53.824Z,97493.66
2023-04-25T14:58:12.681Z,97481.50
2023-04-25T15:00:49.195Z,97483.81
2023-04-25T15:03:26.863Z,97490.50
2023-04-25T15:05:59.995Z,97475.06
2023-04-25T15:08:28.762Z,97483.75
2023-04-25T15:10:59.161Z,97485.03
2023-04-25T15:13:39.817Z,97488.47
2023-04-25T15:16:13.222Z,97473.59
2023-04-25T15:18:48.654Z,97493.06
2023-04-25T15:21:26.950Z,97480.31
2023-04-25T15:24:03.410Z,97478.56
2023-04-25T15:26:47.850Z,97479.47
2023-04-25T15:29:18.994Z,97473.88
2023-04-25T15:31:51.921Z,97474.81
2023-04-25T15:34:25.488Z,97471.84
2023-04-25T15:36:59.991Z,97465.53
2023-04-25T15:39:33.362Z,97470.56
2023-04-25T15:44:49.270Z,97452.56
2023-04-25T15:50:07.815Z,97406.00
2023-04-25T15:52:39.415Z,97448.28
2023-04-25T15:55:18.382Z,97445.91
2023-04-25T15:57:49.137Z,97447.88
2023-04-25T16:00:30.425Z,97442.09
2023-04-25T16:03:01.605Z,97448.25
2023-04-25T16:05:31.167Z,97446.44
2023-04-25T16:08:01.830Z,97446.28
2023-04-25T16:10:39.267Z,97449.06
2023-04-25T16:13:11.252Z,97446.56
2023-04-25T16:15:45.405Z,97437.25
2023-04-25T16:18:13.908Z,97441.19
2023-04-25T16:20:49.022Z,97448.38
2023-04-25T16:23:25.171Z,97453.91
2023-04-25T16:25:58.595Z,97446.59
2023-04-25T16:28:39.282Z,97435.66
2023-04-25T16:31:20.044Z,97453.03
2023-04-25T16:33:58.837Z,97450.66
2023-04-25T16:36:35.069Z,97453.53
2023-04-25T16:39:09.745Z,97454.06
2023-04-25T16:41:38.755Z,97456.06
2023-04-25T16:44:09.268Z,97454.31
2023-04-25T16:46:39.127Z,97452.22
2023-04-25T16:49:12.247Z,97454.31
2023-04-25T16:51:45.628Z,97453.53
2023-04-25T16:54:24.590Z,97450.69
2023-04-25T16:57:00.935Z,97435.25
2023-04-25T16:59:45.038Z,97461.28
2023-04-25T17:02:20.630Z,97456.06
2023-04-25T17:04:51.093Z,97463.13
2023-04-25T17:07:26.933Z,97446.38
2023-04-25T17:10:01.423Z,97468.09
2023-04-25T17:12:36.566Z,97474.38
2023-04-25T17:15:22.182Z,97475.84
2023-04-25T17:17:54.968Z,97456.75
2023-04-25T17:20:26.538Z,97471.84
2023-04-25T17:22:59.484Z,97469.56
2023-04-25T17:25:27.482Z,97485.09
2023-04-25T17:28:01.710Z,97483.09
2023-04-25T17:30:34.447Z,97490.47
2023-04-25T17:33:10.246Z,97504.69
2023-04-25T17:35:38.757Z,97502.97
2023-04-25T17:38:10.769Z,97515.94
2023-04-25T17:40:43.450Z,97516.50
2023-04-25T17:43:14.441Z,97518.63
2023-04-25T17:45:48.435Z,97528.19
2023-04-25T17:48:24.007Z,97537.59
2023-04-25T17:50:56.501Z,97535.66
2023-04-25T17:53:35.698Z,97535.75
2023-04-25T17:56:26.716Z,97525.94
2023-04-25T17:58:59.220Z,97552.00
2023-04-25T18:01:30.455Z,97557.34
2023-04-25T18:04:04.179Z,97566.09
2023-04-25T18:06:41.537Z,97553.66
2023-04-25T18:09:23.820Z,97568.41
2023-04-25T18:12:02.402Z,97545.56
2023-04-25T18:14:32.709Z,97575.81
2023-04-25T18:17:04.231Z,97588.72
2023-04-25T18:19:44.221Z,97593.16
2023-04-25T18:22:22.090Z,97591.91
2023-04-25T18:25:01.558Z,97608.25
2023-04-25T18:27:31.903Z,97603.50
2023-04-25T18:30:05.217Z,97615.13
2023-04-25T18:32:34.450Z,97615.31
2023-04-25T18:35:22.591Z,97625.75
2023-04-25T18:37:54.262Z,97627.03
2023-04-25T18:40:26.876Z,97638.91
2023-04-25T18:42:57.413Z,97643.53
2023-04-25T18:45:27.552Z,97650.06
2023-04-25T18:48:03.746Z,97656.63
2023-04-25T18:50:33.678Z,97656.97
2023-04-25T18:53:07.484Z,97678.31
2023-04-25T18:55:37.567Z,97680.22
2023-04-25T18:58:11.410Z,97677.63
2023-04-25T19:00:42.665Z,97690.56
2023-04-25T19:03:23.064Z,97693.00
2023-04-25T19:05:54.412Z,97700.63
2023-04-25T19:08:27.103Z,97687.97
2023-04-25T19:11:07.582Z,97700.22
2023-04-25T19:13:51.266Z,97724.44
2023-04-25T19:16:24.268Z,97738.06
2023-04-25T19:18:54.060Z,97735.75
2023-04-25T19:21:25.432Z,97713.34
2023-04-25T19:23:56.916Z,97742.66
2023-04-25T19:26:33.115Z,97743.09
2023-04-25T19:29:22.645Z,97743.56
2023-04-25T19:31:52.464Z,97753.59
2023-04-25T19:34:28.458Z,97731.00
2023-04-25T19:37:04.444Z,97741.59
2023-04-25T19:42:21.532Z,97747.03
2023-04-25T19:44:49.857Z,97752.47
2023-04-25T19:47:20.171Z,97762.13
2023-04-25T19:50:02.333Z,97768.97
2023-04-25T19:52:32.664Z,97781.25
2023-04-25T19:55:10.566Z,97786.19
2023-04-25T19:57:41.704Z,97793.41
2023-04-25T20:00:26.075Z,97799.25
2023-04-25T20:02:57.615Z,97796.84
2023-04-25T20:05:27.157Z,97804.19
2023-04-25T20:08:03.504Z,97807.56
2023-04-25T20:10:32.266Z,97799.28
2023-04-25T20:13:06.631Z,97795.59
2023-04-25T20:15:34.909Z,97813.38
2023-04-25T20:18:05.483Z,97811.69
2023-04-25T20:20:36.866Z,97812.66
2023-04-25T20:23:10.630Z,97757.75
2023-04-25T20:25:46.267Z,97811.38
2023-04-25T20:31:10.613Z,97793.41
2023-04-25T20:33:45.728Z,97801.38
2023-04-25T20:36:19.316Z,97808.19
2023-04-25T20:38:54.970Z,97820.00
2023-04-25T20:41:37.395Z,97829.72
2023-04-25T20:44:16.502Z,97840.66
2023-04-25T20:46:51.175Z,97842.41
2023-04-25T20:49:20.205Z,97857.84
2023-04-25T20:51:55.340Z,97859.16
2023-04-25T20:54:27.007Z,97857.34
2023-04-25T20:56:57.861Z,97868.75
2023-04-25T20:59:28.800Z,97844.41
2023-04-25T21:02:02.525Z,97857.94
2023-04-25T21:04:39.684Z,97848.56
2023-04-25T21:07:15.318Z,97860.50
2023-04-25T21:09:50.704Z,97872.84
2023-04-25T21:12:21.475Z,97878.34
2023-04-25T21:14:53.057Z,97875.41
2023-04-25T21:17:23.490Z,97872.25
2023-04-25T21:19:59.717Z,97882.25
2023-04-25T21:22:31.478Z,97883.78
2023-04-25T21:25:09.608Z,97881.34
2023-04-25T21:27:44.595Z,97882.16
2023-04-25T21:30:17.175Z,97892.31
2023-04-25T21:32:54.332Z,97882.28
2023-04-25T21:35:25.015Z,97861.69
2023-04-25T21:37:55.391Z,97884.66
2023-04-25T21:40:23.321Z,97893.38
2023-04-25T21:42:59.349Z,97876.09
2023-04-25T21:45:32.094Z,97891.19
2023-04-25T21:48:04.779Z,97896.28
2023-04-25T21:50:34.109Z,97886.13
2023-04-25T21:53:02.908Z,97887.31
2023-04-25T21:55:45.317Z,97907.84
2023-04-25T21:58:19.531Z,97912.69
2023-04-25T22:00:49.537Z,97906.03
2023-04-25T22:03:26.628Z,97918.59
2023-04-25T22:06:00.874Z,97923.09
2023-04-25T22:08:32.536Z,97927.25
2023-04-25T22:11:10.286Z,97925.09
2023-04-25T22:13:40.257Z,97929.28
2023-04-25T22:16:24.485Z,97929.41
2023-04-25T22:18:58.470Z,97937.59
2023-04-25T22:21:35.837Z,97937.13
2023-04-25T22:24:15.724Z,97937.09
2023-04-25T22:27:00.735Z,97946.72
2023-04-25T22:29:34.874Z,97930.19
2023-04-25T22:32:10.653Z,97943.75
2023-04-25T22:34:42.650Z,97945.19
2023-04-25T22:37:17.707Z,97959.34
2023-04-25T22:39:50.853Z,97963.81
2023-04-25T22:42:25.238Z,97965.22
2023-04-25T22:44:59.457Z,97962.91
2023-04-25T22:47:33.585Z,97967.63
2023-04-25T22:50:08.474Z,97945.34
2023-04-25T22:52:48.162Z,97974.66
2023-04-25T22:55:18.583Z,97969.44
2023-04-25T22:57:48.619Z,97973.53
2023-04-25T23:00:30.697Z,97981.75
2023-04-25T23:03:04.271Z,97988.72
2023-04-25T23:05:35.362Z,97974.84
2023-04-25T23:08:09.313Z,97993.47
2023-04-25T23:10:43.994Z,97995.13
2023-04-25T23:13:19.857Z,97982.69
2023-04-25T23:18:37.212Z,97999.97
2023-04-25T23:21:16.028Z,97986.03
2023-04-25T23:23:46.792Z,97988.09
2023-04-25T23:26:16.863Z,97999.13
2023-04-25T23:28:50.550Z,98012.31
2023-04-25T23:31:20.729Z,98012.97
2023-04-25T23:33:58.155Z,98009.75
2023-04-25T23:36:31.048Z,98014.34
2023-04-25T23:39:02.627Z,98015.06
2023-04-25T23:44:20.360Z,98014.72
2023-04-25T23:46:52.712Z,98013.03
2023-04-25T23:52:12.036Z,98007.28
2023-04-25T23:54:45.828Z,97987.00
2023-04-25T23:57:18.977Z,98017.75
2023-04-25T23:59:49.833Z,98021.31
